Nashville, Tennessee
Traffic Map
Current Weather Conditions
Nashville, Tennessee
Overcast
Overcast
13°
Feels Like: 13°
Wind Chill: 13° Ceiling: 8000
Heat Index: 13° Visibility: 10mi
Dew Point: Wind: 8mph
Humidity: 67% Direction: 220° (SW)
Pressure: 29.86in Gusts: 0mph
Raw Report DataKBNA 240553Z 22007KT 10SM OVC080 13/07 A2986 RMK AO2 SLP108 T01330072 10133 20100 402220100 55021
Traffic Incident Summary
Active as of:
Severity:
Category:
InformationThere was an issue retrieving the traffic information for this location. Please try a different location or try again shortly.
Advertisements